sensor_id;sensor_type;location;lat;lon;timestamp;pressure;altitude;pressure_sealevel;temperature;humidity
77737;BME280;66903;59.926;30.404;2024-01-07T00:05:08;102512.72;;;20.89;20.53
77737;BME280;66903;59.926;30.404;2024-01-07T00:10:19;102505.56;;;20.87;20.62
77737;BME280;66903;59.926;30.404;2024-01-07T00:15:30;102521.22;;;20.89;20.74
77737;BME280;66903;59.926;30.404;2024-01-07T00:20:41;102525.72;;;20.97;20.60
77737;BME280;66903;59.926;30.404;2024-01-07T00:25:52;102526.13;;;21.01;20.47
77737;BME280;66903;59.926;30.404;2024-01-07T00:31:03;102532.91;;;21.00;20.65
77737;BME280;66903;59.926;30.404;2024-01-07T00:36:14;102534.94;;;20.92;20.50
77737;BME280;66903;59.926;30.404;2024-01-07T00:41:24;102539.41;;;20.88;20.44
77737;BME280;66903;59.926;30.404;2024-01-07T00:46:35;102532.59;;;20.89;20.36
77737;BME280;66903;59.926;30.404;2024-01-07T00:51:46;102542.25;;;20.88;20.44
77737;BME280;66903;59.926;30.404;2024-01-07T00:56:57;102545.38;;;20.80;20.31
77737;BME280;66903;59.926;30.404;2024-01-07T01:02:07;102555.72;;;20.75;20.32
77737;BME280;66903;59.926;30.404;2024-01-07T01:07:18;102561.03;;;20.71;20.39
77737;BME280;66903;59.926;30.404;2024-01-07T01:12:29;102559.69;;;20.74;20.52
77737;BME280;66903;59.926;30.404;2024-01-07T01:17:40;102556.22;;;20.72;20.27
77737;BME280;66903;59.926;30.404;2024-01-07T01:22:50;102564.09;;;20.70;20.33
77737;BME280;66903;59.926;30.404;2024-01-07T01:28:01;102571.59;;;20.64;20.21
77737;BME280;66903;59.926;30.404;2024-01-07T01:33:12;102571.22;;;20.61;20.38
77737;BME280;66903;59.926;30.404;2024-01-07T01:38:23;102576.53;;;20.57;20.26
77737;BME280;66903;59.926;30.404;2024-01-07T01:43:33;102582.56;;;20.61;20.33
77737;BME280;66903;59.926;30.404;2024-01-07T01:48:44;102591.34;;;20.59;20.18
77737;BME280;66903;59.926;30.404;2024-01-07T01:53:55;102607.28;;;20.60;20.26
77737;BME280;66903;59.926;30.404;2024-01-07T01:59:08;102600.47;;;20.61;20.13
77737;BME280;66903;59.926;30.404;2024-01-07T02:04:19;102603.97;;;20.63;20.23
77737;BME280;66903;59.926;30.404;2024-01-07T02:09:30;102604.59;;;20.65;20.35
77737;BME280;66903;59.926;30.404;2024-01-07T02:14:41;102617.91;;;20.65;20.19
77737;BME280;66903;59.926;30.404;2024-01-07T02:19:52;102616.81;;;20.66;20.18
77737;BME280;66903;59.926;30.404;2024-01-07T02:25:02;102618.78;;;20.65;20.17
77737;BME280;66903;59.926;30.404;2024-01-07T02:30:14;102624.06;;;20.62;20.15
77737;BME280;66903;59.926;30.404;2024-01-07T02:35:25;102626.28;;;20.60;20.04
77737;BME280;66903;59.926;30.404;2024-01-07T02:40:36;102634.41;;;20.56;19.83
77737;BME280;66903;59.926;30.404;2024-01-07T02:45:47;102644.72;;;20.51;19.92
77737;BME280;66903;59.926;30.404;2024-01-07T02:50:57;102639.28;;;20.49;19.94
77737;BME280;66903;59.926;30.404;2024-01-07T02:56:08;102640.41;;;20.48;19.84
77737;BME280;66903;59.926;30.404;2024-01-07T03:01:22;102632.03;;;20.53;19.86
77737;BME280;66903;59.926;30.404;2024-01-07T03:06:33;102639.44;;;20.54;19.82
77737;BME280;66903;59.926;30.404;2024-01-07T03:11:44;102632.59;;;20.44;19.77
77737;BME280;66903;59.926;30.404;2024-01-07T03:16:55;102643.78;;;20.39;20.00
77737;BME280;66903;59.926;30.404;2024-01-07T03:22:07;102652.13;;;20.34;20.07
77737;BME280;66903;59.926;30.404;2024-01-07T03:27:18;102648.50;;;20.27;19.91
77737;BME280;66903;59.926;30.404;2024-01-07T03:32:29;102645.66;;;20.27;19.94
77737;BME280;66903;59.926;30.404;2024-01-07T03:37:39;102651.97;;;20.29;19.77
77737;BME280;66903;59.926;30.404;2024-01-07T03:42:50;102657.41;;;20.30;19.87
77737;BME280;66903;59.926;30.404;2024-01-07T03:48:01;102669.56;;;20.37;19.75
77737;BME280;66903;59.926;30.404;2024-01-07T03:53:12;102675.63;;;20.41;19.86
77737;BME280;66903;59.926;30.404;2024-01-07T03:58:23;102677.59;;;20.40;19.92
77737;BME280;66903;59.926;30.404;2024-01-07T04:03:33;102679.50;;;20.46;19.85
77737;BME280;66903;59.926;30.404;2024-01-07T04:08:44;102683.16;;;20.53;19.87
77737;BME280;66903;59.926;30.404;2024-01-07T04:13:55;102693.38;;;20.54;19.73
77737;BME280;66903;59.926;30.404;2024-01-07T04:19:06;102687.94;;;20.53;19.82
77737;BME280;66903;59.926;30.404;2024-01-07T04:24:16;102696.22;;;20.54;19.56
77737;BME280;66903;59.926;30.404;2024-01-07T04:29:27;102689.00;;;20.58;19.50
77737;BME280;66903;59.926;30.404;2024-01-07T04:34:38;102699.00;;;20.61;19.43
77737;BME280;66903;59.926;30.404;2024-01-07T04:39:49;102702.63;;;20.68;19.48
77737;BME280;66903;59.926;30.404;2024-01-07T04:45:00;102698.47;;;20.70;19.44
77737;BME280;66903;59.926;30.404;2024-01-07T04:50:11;102709.19;;;20.68;18.99
77737;BME280;66903;59.926;30.404;2024-01-07T04:55:24;102715.97;;;20.67;19.55
77737;BME280;66903;59.926;30.404;2024-01-07T05:00:35;102715.75;;;20.69;19.44
77737;BME280;66903;59.926;30.404;2024-01-07T05:05:45;102722.91;;;20.71;19.26
77737;BME280;66903;59.926;30.404;2024-01-07T05:10:56;102730.97;;;20.74;19.52
77737;BME280;66903;59.926;30.404;2024-01-07T05:16:07;102730.72;;;20.76;19.27
77737;BME280;66903;59.926;30.404;2024-01-07T05:21:21;102737.06;;;20.78;19.44
77737;BME280;66903;59.926;30.404;2024-01-07T05:26:38;102740.97;;;20.77;19.32
77737;BME280;66903;59.926;30.404;2024-01-07T05:31:49;102752.81;;;20.74;19.25
77737;BME280;66903;59.926;30.404;2024-01-07T05:37:00;102761.97;;;20.76;19.40
77737;BME280;66903;59.926;30.404;2024-01-07T05:42:11;102762.22;;;20.74;19.31
77737;BME280;66903;59.926;30.404;2024-01-07T05:47:22;102768.53;;;20.76;19.26
77737;BME280;66903;59.926;30.404;2024-01-07T05:52:32;102760.63;;;20.78;19.33
77737;BME280;66903;59.926;30.404;2024-01-07T05:57:43;102767.41;;;20.77;19.22
77737;BME280;66903;59.926;30.404;2024-01-07T06:02:54;102780.97;;;20.75;19.51
77737;BME280;66903;59.926;30.404;2024-01-07T06:08:05;102795.00;;;20.70;19.22
77737;BME280;66903;59.926;30.404;2024-01-07T06:13:16;102795.53;;;20.61;19.20
77737;BME280;66903;59.926;30.404;2024-01-07T06:18:27;102798.91;;;20.51;19.20
77737;BME280;66903;59.926;30.404;2024-01-07T06:23:38;102816.25;;;20.43;19.28
77737;BME280;66903;59.926;30.404;2024-01-07T06:28:48;102814.31;;;20.37;19.26
77737;BME280;66903;59.926;30.404;2024-01-07T06:34:00;102818.28;;;20.36;19.26
77737;BME280;66903;59.926;30.404;2024-01-07T06:39:11;102823.53;;;20.33;19.26
77737;BME280;66903;59.926;30.404;2024-01-07T06:44:22;102823.97;;;20.30;19.41
77737;BME280;66903;59.926;30.404;2024-01-07T06:49:32;102831.66;;;20.29;19.41
77737;BME280;66903;59.926;30.404;2024-01-07T06:54:43;102840.50;;;20.39;19.27
77737;BME280;66903;59.926;30.404;2024-01-07T06:59:54;102842.00;;;20.42;19.15
77737;BME280;66903;59.926;30.404;2024-01-07T07:05:05;102847.66;;;20.48;19.31
77737;BME280;66903;59.926;30.404;2024-01-07T07:10:16;102852.03;;;20.44;19.33
77737;BME280;66903;59.926;30.404;2024-01-07T07:15:26;102849.69;;;20.35;19.37
77737;BME280;66903;59.926;30.404;2024-01-07T07:20:38;102858.91;;;20.30;19.29
77737;BME280;66903;59.926;30.404;2024-01-07T07:25:49;102860.63;;;20.31;19.45
77737;BME280;66903;59.926;30.404;2024-01-07T07:31:00;102858.44;;;20.33;19.56
77737;BME280;66903;59.926;30.404;2024-01-07T07:36:11;102863.72;;;20.30;19.36
77737;BME280;66903;59.926;30.404;2024-01-07T07:41:21;102867.47;;;20.24;19.12
77737;BME280;66903;59.926;30.404;2024-01-07T07:46:32;102876.00;;;20.24;19.16
77737;BME280;66903;59.926;30.404;2024-01-07T07:51:43;102876.84;;;20.24;19.11
77737;BME280;66903;59.926;30.404;2024-01-07T07:56:54;102880.75;;;20.30;19.15
77737;BME280;66903;59.926;30.404;2024-01-07T08:02:05;102887.00;;;20.38;19.35
77737;BME280;66903;59.926;30.404;2024-01-07T08:07:16;102880.38;;;20.51;19.61
77737;BME280;66903;59.926;30.404;2024-01-07T08:12:26;102891.50;;;20.52;19.61
77737;BME280;66903;59.926;30.404;2024-01-07T08:17:37;102906.75;;;20.58;20.00
77737;BME280;66903;59.926;30.404;2024-01-07T08:22:48;102898.81;;;20.66;19.81
77737;BME280;66903;59.926;30.404;2024-01-07T08:27:59;102898.16;;;20.64;19.92
77737;BME280;66903;59.926;30.404;2024-01-07T08:33:10;102906.50;;;20.59;19.82
77737;BME280;66903;59.926;30.404;2024-01-07T08:38:21;102901.28;;;20.56;20.03
77737;BME280;66903;59.926;30.404;2024-01-07T08:43:31;102905.00;;;20.57;21.21
77737;BME280;66903;59.926;30.404;2024-01-07T08:48:42;102914.22;;;20.77;21.24
77737;BME280;66903;59.926;30.404;2024-01-07T08:53:53;102901.03;;;21.14;21.25
77737;BME280;66903;59.926;30.404;2024-01-07T08:59:04;102908.66;;;21.56;20.99
77737;BME280;66903;59.926;30.404;2024-01-07T09:04:15;102912.47;;;22.04;20.75
77737;BME280;66903;59.926;30.404;2024-01-07T09:09:27;102916.88;;;22.48;19.77
77737;BME280;66903;59.926;30.404;2024-01-07T09:14:38;102917.75;;;22.78;20.26
77737;BME280;66903;59.926;30.404;2024-01-07T09:19:49;102908.69;;;22.69;19.80
77737;BME280;66903;59.926;30.404;2024-01-07T09:25:04;102927.47;;;22.29;19.91
77737;BME280;66903;59.926;30.404;2024-01-07T09:30:16;102928.00;;;21.90;20.38
77737;BME280;66903;59.926;30.404;2024-01-07T09:35:28;102933.25;;;21.68;20.51
77737;BME280;66903;59.926;30.404;2024-01-07T09:40:39;102927.56;;;21.50;20.83
77737;BME280;66903;59.926;30.404;2024-01-07T09:45:51;102934.34;;;21.49;20.87
77737;BME280;66903;59.926;30.404;2024-01-07T09:51:04;102936.94;;;21.51;21.00
77737;BME280;66903;59.926;30.404;2024-01-07T09:56:20;102932.94;;;21.58;20.76
77737;BME280;66903;59.926;30.404;2024-01-07T10:01:34;102923.91;;;21.61;20.48
77737;BME280;66903;59.926;30.404;2024-01-07T10:06:46;102916.03;;;21.63;20.61
77737;BME280;66903;59.926;30.404;2024-01-07T10:11:59;102935.44;;;21.66;20.44
77737;BME280;66903;59.926;30.404;2024-01-07T10:17:16;102924.06;;;21.66;20.38
77737;BME280;66903;59.926;30.404;2024-01-07T10:22:27;102931.59;;;21.61;20.11
77737;BME280;66903;59.926;30.404;2024-01-07T10:27:38;102939.25;;;21.60;19.93
77737;BME280;66903;59.926;30.404;2024-01-07T10:32:49;102942.59;;;21.57;20.08
77737;BME280;66903;59.926;30.404;2024-01-07T10:38:03;102956.81;;;21.57;20.02
77737;BME280;66903;59.926;30.404;2024-01-07T10:43:15;102963.41;;;21.51;20.11
77737;BME280;66903;59.926;30.404;2024-01-07T10:48:29;102952.53;;;21.48;19.86
77737;BME280;66903;59.926;30.404;2024-01-07T10:53:43;102956.69;;;21.46;19.82
77737;BME280;66903;59.926;30.404;2024-01-07T10:58:56;102958.25;;;21.42;19.89
77737;BME280;66903;59.926;30.404;2024-01-07T11:04:17;102949.72;;;21.42;19.74
77737;BME280;66903;59.926;30.404;2024-01-07T11:09:36;102953.03;;;21.39;19.79
77737;BME280;66903;59.926;30.404;2024-01-07T11:14:48;102948.91;;;21.35;19.74
77737;BME280;66903;59.926;30.404;2024-01-07T11:20:07;102948.72;;;21.36;19.64
77737;BME280;66903;59.926;30.404;2024-01-07T11:25:30;102946.97;;;21.35;19.66
77737;BME280;66903;59.926;30.404;2024-01-07T11:30:41;102952.88;;;21.34;19.55
77737;BME280;66903;59.926;30.404;2024-01-07T11:36:02;102943.03;;;21.36;19.49
77737;BME280;66903;59.926;30.404;2024-01-07T11:41:15;102942.84;;;21.31;19.54
77737;BME280;66903;59.926;30.404;2024-01-07T11:46:29;102951.16;;;21.33;19.49
77737;BME280;66903;59.926;30.404;2024-01-07T11:51:43;102948.31;;;21.33;19.33
77737;BME280;66903;59.926;30.404;2024-01-07T11:56:55;102954.81;;;21.40;19.35
77737;BME280;66903;59.926;30.404;2024-01-07T12:02:07;102954.56;;;21.41;19.80
77737;BME280;66903;59.926;30.404;2024-01-07T12:07:18;102950.13;;;21.45;19.62
77737;BME280;66903;59.926;30.404;2024-01-07T12:12:29;102946.44;;;21.45;19.71
77737;BME280;66903;59.926;30.404;2024-01-07T12:17:40;102928.72;;;21.43;19.80
77737;BME280;66903;59.926;30.404;2024-01-07T12:22:51;102944.44;;;21.45;19.78
77737;BME280;66903;59.926;30.404;2024-01-07T12:28:06;102943.28;;;21.53;19.69
77737;BME280;66903;59.926;30.404;2024-01-07T12:33:18;102953.31;;;21.55;19.63
77737;BME280;66903;59.926;30.404;2024-01-07T12:38:29;102950.63;;;21.60;19.67
77737;BME280;66903;59.926;30.404;2024-01-07T12:43:43;102952.06;;;21.69;19.82
77737;BME280;66903;59.926;30.404;2024-01-07T12:48:54;102962.47;;;21.75;19.72
77737;BME280;66903;59.926;30.404;2024-01-07T12:54:04;102964.47;;;21.75;19.60
77737;BME280;66903;59.926;30.404;2024-01-07T12:59:15;102979.78;;;21.74;19.63
77737;BME280;66903;59.926;30.404;2024-01-07T13:04:26;102980.03;;;21.72;19.43
77737;BME280;66903;59.926;30.404;2024-01-07T13:09:37;102978.13;;;21.66;19.47
77737;BME280;66903;59.926;30.404;2024-01-07T13:14:48;102989.72;;;21.65;19.30
77737;BME280;66903;59.926;30.404;2024-01-07T13:20:00;102992.19;;;21.61;19.24
77737;BME280;66903;59.926;30.404;2024-01-07T13:25:10;102997.22;;;21.59;19.15
77737;BME280;66903;59.926;30.404;2024-01-07T13:30:21;102994.63;;;21.58;19.23
77737;BME280;66903;59.926;30.404;2024-01-07T13:35:32;102999.38;;;21.64;19.38
77737;BME280;66903;59.926;30.404;2024-01-07T13:40:43;103003.03;;;21.71;19.23
77737;BME280;66903;59.926;30.404;2024-01-07T13:45:53;103003.19;;;21.76;19.42
77737;BME280;66903;59.926;30.404;2024-01-07T13:51:05;103001.03;;;21.78;19.32
77737;BME280;66903;59.926;30.404;2024-01-07T13:56:16;103013.69;;;21.82;19.33
77737;BME280;66903;59.926;30.404;2024-01-07T14:01:27;103004.41;;;21.86;19.40
77737;BME280;66903;59.926;30.404;2024-01-07T14:06:37;103011.84;;;21.87;19.37
77737;BME280;66903;59.926;30.404;2024-01-07T14:11:48;103000.25;;;21.89;19.36
77737;BME280;66903;59.926;30.404;2024-01-07T14:16:59;103017.91;;;21.91;19.43
77737;BME280;66903;59.926;30.404;2024-01-07T14:22:10;103016.59;;;21.93;19.33
77737;BME280;66903;59.926;30.404;2024-01-07T14:27:21;103011.53;;;21.95;19.17
77737;BME280;66903;59.926;30.404;2024-01-07T14:32:32;103012.19;;;21.98;19.17
77737;BME280;66903;59.926;30.404;2024-01-07T14:37:43;103008.22;;;21.98;19.29
77737;BME280;66903;59.926;30.404;2024-01-07T14:42:54;103013.03;;;21.98;18.90
77737;BME280;66903;59.926;30.404;2024-01-07T14:48:08;103020.47;;;21.99;19.09
77737;BME280;66903;59.926;30.404;2024-01-07T14:53:19;103018.28;;;22.01;19.26
77737;BME280;66903;59.926;30.404;2024-01-07T14:58:29;103028.94;;;22.06;19.27
77737;BME280;66903;59.926;30.404;2024-01-07T15:03:40;103020.16;;;22.07;19.00
77737;BME280;66903;59.926;30.404;2024-01-07T15:08:51;103023.63;;;22.09;19.19
77737;BME280;66903;59.926;30.404;2024-01-07T15:14:03;103026.00;;;22.12;19.21
77737;BME280;66903;59.926;30.404;2024-01-07T15:19:17;103028.78;;;22.19;19.05
77737;BME280;66903;59.926;30.404;2024-01-07T15:24:28;103025.69;;;22.20;19.26
77737;BME280;66903;59.926;30.404;2024-01-07T15:29:39;103032.31;;;22.14;19.12
77737;BME280;66903;59.926;30.404;2024-01-07T15:34:50;103031.94;;;22.11;19.14
77737;BME280;66903;59.926;30.404;2024-01-07T15:40:00;103032.66;;;22.06;19.04
77737;BME280;66903;59.926;30.404;2024-01-07T15:45:15;103037.72;;;22.04;19.27
77737;BME280;66903;59.926;30.404;2024-01-07T15:50:25;103037.06;;;22.02;19.25
77737;BME280;66903;59.926;30.404;2024-01-07T15:55:36;103035.34;;;22.01;19.22
77737;BME280;66903;59.926;30.404;2024-01-07T16:00:47;103036.44;;;22.00;19.28
77737;BME280;66903;59.926;30.404;2024-01-07T16:05:58;103046.97;;;22.00;19.13
77737;BME280;66903;59.926;30.404;2024-01-07T16:11:09;103044.13;;;22.00;19.33
77737;BME280;66903;59.926;30.404;2024-01-07T16:16:21;103055.50;;;22.00;19.00
77737;BME280;66903;59.926;30.404;2024-01-07T16:21:32;103046.09;;;21.99;19.00
77737;BME280;66903;59.926;30.404;2024-01-07T16:26:43;103041.28;;;22.00;18.97
77737;BME280;66903;59.926;30.404;2024-01-07T16:31:54;103034.06;;;21.97;19.06
77737;BME280;66903;59.926;30.404;2024-01-07T16:37:04;103034.06;;;21.97;19.08
77737;BME280;66903;59.926;30.404;2024-01-07T16:42:15;103036.03;;;21.96;19.42
77737;BME280;66903;59.926;30.404;2024-01-07T16:47:26;103022.03;;;21.95;19.25
77737;BME280;66903;59.926;30.404;2024-01-07T16:52:37;103026.00;;;21.94;19.15
77737;BME280;66903;59.926;30.404;2024-01-07T16:57:48;103026.84;;;21.94;19.13
77737;BME280;66903;59.926;30.404;2024-01-07T17:02:58;103016.59;;;21.93;19.35
77737;BME280;66903;59.926;30.404;2024-01-07T17:08:09;103022.28;;;21.93;19.29
77737;BME280;66903;59.926;30.404;2024-01-07T17:13:20;103014.88;;;21.92;19.43
77737;BME280;66903;59.926;30.404;2024-01-07T17:18:30;103029.69;;;21.94;19.46
77737;BME280;66903;59.926;30.404;2024-01-07T17:23:41;103030.59;;;21.95;19.41
77737;BME280;66903;59.926;30.404;2024-01-07T17:28:55;103027.75;;;21.95;19.32
77737;BME280;66903;59.926;30.404;2024-01-07T17:34:06;103005.22;;;21.93;19.24
77737;BME280;66903;59.926;30.404;2024-01-07T17:39:17;103020.97;;;21.96;19.77
77737;BME280;66903;59.926;30.404;2024-01-07T17:44:28;103013.25;;;21.96;19.53
77737;BME280;66903;59.926;30.404;2024-01-07T17:49:38;103012.56;;;22.01;19.79
77737;BME280;66903;59.926;30.404;2024-01-07T17:54:49;103023.81;;;21.96;19.85
77737;BME280;66903;59.926;30.404;2024-01-07T18:00:01;103025.06;;;21.82;19.69
77737;BME280;66903;59.926;30.404;2024-01-07T18:05:15;103006.53;;;21.73;20.06
77737;BME280;66903;59.926;30.404;2024-01-07T18:10:26;103000.19;;;21.71;20.22
77737;BME280;66903;59.926;30.404;2024-01-07T18:15:37;102994.97;;;21.68;20.49
77737;BME280;66903;59.926;30.404;2024-01-07T18:20:48;103011.41;;;21.66;20.60
77737;BME280;66903;59.926;30.404;2024-01-07T18:25:59;103001.59;;;21.62;21.09
77737;BME280;66903;59.926;30.404;2024-01-07T18:31:10;103015.19;;;21.60;20.97
77737;BME280;66903;59.926;30.404;2024-01-07T18:36:21;103008.41;;;21.61;20.91
77737;BME280;66903;59.926;30.404;2024-01-07T18:41:32;103018.00;;;21.60;21.01
77737;BME280;66903;59.926;30.404;2024-01-07T18:46:43;103018.72;;;21.55;20.89
77737;BME280;66903;59.926;30.404;2024-01-07T18:51:55;103014.59;;;21.51;20.98
77737;BME280;66903;59.926;30.404;2024-01-07T18:57:09;103018.78;;;21.49;20.94
77737;BME280;66903;59.926;30.404;2024-01-07T19:02:21;103010.72;;;21.46;20.89
77737;BME280;66903;59.926;30.404;2024-01-07T19:07:31;103006.38;;;21.43;20.86
77737;BME280;66903;59.926;30.404;2024-01-07T19:12:42;103006.78;;;21.47;20.82
77737;BME280;66903;59.926;30.404;2024-01-07T19:17:53;103010.72;;;21.46;20.69
77737;BME280;66903;59.926;30.404;2024-01-07T19:23:04;103002.66;;;21.43;20.77
77737;BME280;66903;59.926;30.404;2024-01-07T19:28:17;102997.91;;;21.37;20.83
77737;BME280;66903;59.926;30.404;2024-01-07T19:33:27;103001.78;;;21.42;21.23
77737;BME280;66903;59.926;30.404;2024-01-07T19:38:38;103004.34;;;21.50;21.13
77737;BME280;66903;59.926;30.404;2024-01-07T19:43:50;102999.91;;;21.54;21.03
77737;BME280;66903;59.926;30.404;2024-01-07T19:49:03;103010.03;;;21.50;21.01
77737;BME280;66903;59.926;30.404;2024-01-07T19:54:16;103010.06;;;21.44;20.96
77737;BME280;66903;59.926;30.404;2024-01-07T19:59:27;103018.91;;;21.36;21.05
77737;BME280;66903;59.926;30.404;2024-01-07T20:04:38;103019.38;;;21.33;20.99
77737;BME280;66903;59.926;30.404;2024-01-07T20:09:50;103020.31;;;21.27;21.09
77737;BME280;66903;59.926;30.404;2024-01-07T20:15:02;103013.97;;;21.25;21.21
77737;BME280;66903;59.926;30.404;2024-01-07T20:20:14;103006.56;;;21.24;21.18
77737;BME280;66903;59.926;30.404;2024-01-07T20:25:27;102994.47;;;21.28;21.00
77737;BME280;66903;59.926;30.404;2024-01-07T20:30:37;102996.16;;;21.36;20.78
77737;BME280;66903;59.926;30.404;2024-01-07T20:35:48;102989.50;;;21.48;23.81
77737;BME280;66903;59.926;30.404;2024-01-07T20:41:00;102980.41;;;21.58;23.73
77737;BME280;66903;59.926;30.404;2024-01-07T20:46:12;102983.66;;;21.61;23.80
77737;BME280;66903;59.926;30.404;2024-01-07T20:51:23;102982.97;;;21.66;24.04
77737;BME280;66903;59.926;30.404;2024-01-07T20:56:34;102983.81;;;21.66;23.32
77737;BME280;66903;59.926;30.404;2024-01-07T21:01:45;102978.84;;;21.62;22.95
77737;BME280;66903;59.926;30.404;2024-01-07T21:06:56;102974.28;;;21.61;22.74
77737;BME280;66903;59.926;30.404;2024-01-07T21:12:07;102972.13;;;21.74;22.52
77737;BME280;66903;59.926;30.404;2024-01-07T21:17:18;102975.47;;;21.89;23.78
77737;BME280;66903;59.926;30.404;2024-01-07T21:22:29;102973.53;;;22.08;23.91
77737;BME280;66903;59.926;30.404;2024-01-07T21:27:40;102971.75;;;22.25;23.92
77737;BME280;66903;59.926;30.404;2024-01-07T21:32:50;102974.41;;;22.38;23.58
77737;BME280;66903;59.926;30.404;2024-01-07T21:38:01;102967.25;;;22.47;23.49
77737;BME280;66903;59.926;30.404;2024-01-07T21:43:12;102968.94;;;22.55;23.02
77737;BME280;66903;59.926;30.404;2024-01-07T21:48:23;102960.78;;;22.58;22.95
77737;BME280;66903;59.926;30.404;2024-01-07T21:53:34;102953.97;;;22.59;22.71
77737;BME280;66903;59.926;30.404;2024-01-07T21:58:45;102956.81;;;22.59;22.66
77737;BME280;66903;59.926;30.404;2024-01-07T22:03:56;102953.38;;;22.57;22.43
77737;BME280;66903;59.926;30.404;2024-01-07T22:09:06;102946.06;;;22.61;22.20
77737;BME280;66903;59.926;30.404;2024-01-07T22:14:17;102930.72;;;22.62;22.17
77737;BME280;66903;59.926;30.404;2024-01-07T22:19:28;102934.19;;;22.64;21.96
77737;BME280;66903;59.926;30.404;2024-01-07T22:24:39;102925.00;;;22.62;22.08
77737;BME280;66903;59.926;30.404;2024-01-07T22:29:50;102926.22;;;22.55;22.18
77737;BME280;66903;59.926;30.404;2024-01-07T22:35:01;102920.34;;;22.50;22.23
77737;BME280;66903;59.926;30.404;2024-01-07T22:40:14;102933.56;;;22.44;21.99
77737;BME280;66903;59.926;30.404;2024-01-07T22:45:24;102913.63;;;22.44;21.70
77737;BME280;66903;59.926;30.404;2024-01-07T22:50:38;102912.31;;;22.47;21.56
77737;BME280;66903;59.926;30.404;2024-01-07T22:55:49;102915.53;;;22.50;21.59
77737;BME280;66903;59.926;30.404;2024-01-07T23:01:00;102909.34;;;22.53;21.28
77737;BME280;66903;59.926;30.404;2024-01-07T23:06:10;102903.66;;;22.53;21.48
77737;BME280;66903;59.926;30.404;2024-01-07T23:11:21;102908.00;;;22.56;21.43
77737;BME280;66903;59.926;30.404;2024-01-07T23:16:32;102908.00;;;22.56;21.07
77737;BME280;66903;59.926;30.404;2024-01-07T23:21:44;102908.25;;;22.54;21.18
77737;BME280;66903;59.926;30.404;2024-01-07T23:26:54;102901.88;;;22.52;20.80
77737;BME280;66903;59.926;30.404;2024-01-07T23:32:05;102884.81;;;22.52;21.14
77737;BME280;66903;59.926;30.404;2024-01-07T23:37:17;102875.16;;;22.53;20.99
77737;BME280;66903;59.926;30.404;2024-01-07T23:42:28;102880.66;;;22.55;20.90
77737;BME280;66903;59.926;30.404;2024-01-07T23:47:38;102866.16;;;22.56;20.75
77737;BME280;66903;59.926;30.404;2024-01-07T23:52:49;102854.13;;;22.54;20.92
77737;BME280;66903;59.926;30.404;2024-01-07T23:58:00;102855.00;;;22.55;20.99
